PWSweather.com
Personal Weather Stations
Station Observations
KMACAMBR
Central Square, Cambridge, MA 02139

Central SquareCambridge, MA 02139

Lat: 42.36379, Lon: -71.107902

Elevation: 6

Station Type: Davis Vantage Pro2

https://weather-cambridge.keneli.org

Latest ConditionsUpdated 4:05:00 AM EST Friday, Feb 22, 2019
Currently Today's Max Today's Min Today's Average
Temperature 37.9°F3.3°C 38.8°F3.8°C 37.7°F3.2°C 38.2°F3.4°C
Dew Point 25.3°F-3.7°C 28.1°F-2.2°C 24.9°F-3.9°C 26.2°F-3.2°C
Winds 2.0 mph WSW3.2 kmh WSW 7.0 mph -11.3 kmh - - 3.0 mph 4.8 kmh
Wind Gusts 3.0 mph4.8 kmh 17.0 mph27.4 kmh - -
Humidity 60% 66% 58% 62%
Pressure 30.10 in1019.3 mb 30.11 in1019.6 mb 29.99 in1015.6 mb -
Hour Temp Dew Point Humidity Winds Wind Gusts Pressure Precip Precip Rate Daily Precip Total
04:05 AM 37.9°F3.3°C 25.3°F-3.7°C 60% 2.0 mph WSW3.2 kmh WSW 3.0 mph4.8 kmh 30.10 in1019.3 mb 0.00 in0.0 mm 0.00 in0.0 mm 0.00 in0.0 mm
04:00 AM 37.9°F3.3°C 25.7°F-3.5°C 61% Calm Calm 2.0 mph3.2 kmh 30.11 in1019.6 mb 0.00 in0.0 mm 0.00 in0.0 mm 0.00 in0.0 mm
03:55 AM 37.9°F3.3°C 25.7°F-3.5°C 61% Calm Calm 1.0 mph1.6 kmh 30.10 in1019.3 mb 0.00 in0.0 mm 0.00 in0.0 mm 0.00 in0.0 mm
03:50 AM 37.9°F3.3°C 25.3°F-3.7°C 60% Calm Calm 3.0 mph4.8 kmh 30.09 in1019.0 mb 0.00 in0.0 mm 0.00 in0.0 mm 0.00 in0.0 mm
03:45 AM 37.8°F3.2°C 25.6°F-3.6°C 61% 1.0 mph WSW1.6 kmh WSW 4.0 mph6.4 kmh 30.09 in1019.0 mb 0.00 in0.0 mm 0.00 in0.0 mm 0.00 in0.0 mm
03:40 AM 37.8°F3.2°C 25.2°F-3.8°C 60% 2.0 mph W3.2 kmh W 4.0 mph6.4 kmh 30.09 in1019.0 mb 0.00 in0.0 mm 0.00 in0.0 mm 0.00 in0.0 mm
03:35 AM 37.8°F3.2°C 25.2°F-3.8°C 60% 2.0 mph W3.2 kmh W 6.0 mph9.7 kmh 30.08 in1018.6 mb 0.00 in0.0 mm 0.00 in0.0 mm 0.00 in0.0 mm
03:30 AM 37.7°F3.2°C 25.1°F-3.8°C 60% 2.0 mph W3.2 kmh W 5.0 mph8.0 kmh 30.08 in1018.6 mb 0.00 in0.0 mm 0.00 in0.0 mm 0.00 in0.0 mm
03:25 AM 37.7°F3.2°C 25.1°F-3.8°C 60% 2.0 mph WNW3.2 kmh WNW 7.0 mph11.3 kmh 30.08 in1018.6 mb 0.00 in0.0 mm 0.00 in0.0 mm 0.00 in0.0 mm
03:20 AM 37.7°F3.2°C 25.1°F-3.8°C 60% 2.0 mph W3.2 kmh W 5.0 mph8.0 kmh 30.07 in1018.3 mb 0.00 in0.0 mm 0.00 in0.0 mm 0.00 in0.0 mm
03:15 AM 37.7°F3.2°C 25.1°F-3.8°C 60% 3.0 mph WNW4.8 kmh WNW 7.0 mph11.3 kmh 30.07 in1018.3 mb 0.00 in0.0 mm 0.00 in0.0 mm 0.00 in0.0 mm
03:10 AM 37.7°F3.2°C 25.1°F-3.8°C 60% 3.0 mph WNW4.8 kmh WNW 6.0 mph9.7 kmh 30.07 in1018.3 mb 0.00 in0.0 mm 0.00 in0.0 mm 0.00 in0.0 mm
03:05 AM 37.7°F3.2°C 25.1°F-3.8°C 60% 3.0 mph WNW4.8 kmh WNW 6.0 mph9.7 kmh 30.07 in1018.3 mb 0.00 in0.0 mm 0.00 in0.0 mm 0.00 in0.0 mm
03:00 AM 37.7°F3.2°C 25.1°F-3.8°C 60% 4.0 mph WNW6.4 kmh WNW 8.0 mph12.9 kmh 30.07 in1018.3 mb 0.00 in0.0 mm 0.00 in0.0 mm 0.00 in0.0 mm
02:55 AM 37.8°F3.2°C 25.6°F-3.6°C 61% 4.0 mph W6.4 kmh W 9.0 mph14.5 kmh 30.06 in1017.9 mb 0.00 in0.0 mm 0.00 in0.0 mm 0.00 in0.0 mm
02:50 AM 37.8°F3.2°C 25.6°F-3.6°C 61% 3.0 mph WNW4.8 kmh WNW 8.0 mph12.9 kmh 30.07 in1018.3 mb 0.00 in0.0 mm 0.00 in0.0 mm 0.00 in0.0 mm
02:45 AM 37.9°F3.3°C 25.7°F-3.5°C 61% 3.0 mph W4.8 kmh W 8.0 mph12.9 kmh 30.07 in1018.3 mb 0.00 in0.0 mm 0.00 in0.0 mm 0.00 in0.0 mm
02:40 AM 38.0°F3.3°C 26.2°F-3.2°C 62% 3.0 mph WNW4.8 kmh WNW 8.0 mph12.9 kmh 30.07 in1018.3 mb 0.00 in0.0 mm 0.00 in0.0 mm 0.00 in0.0 mm
02:35 AM 38.0°F3.3°C 26.2°F-3.2°C 62% 4.0 mph WNW6.4 kmh WNW 10.0 mph16.1 kmh 30.06 in1017.9 mb 0.00 in0.0 mm 0.00 in0.0 mm 0.00 in0.0 mm
02:30 AM 38.1°F3.4°C 26.2°F-3.2°C 62% 3.0 mph W4.8 kmh W 8.0 mph12.9 kmh 30.07 in1018.3 mb 0.00 in0.0 mm 0.00 in0.0 mm 0.00 in0.0 mm
02:25 AM 38.1°F3.4°C 26.2°F-3.2°C 62% 3.0 mph WNW4.8 kmh WNW 7.0 mph11.3 kmh 30.07 in1018.3 mb 0.00 in0.0 mm 0.00 in0.0 mm 0.00 in0.0 mm
02:20 AM 38.1°F3.4°C 26.2°F-3.2°C 62% 3.0 mph W4.8 kmh W 9.0 mph14.5 kmh 30.06 in1017.9 mb 0.00 in0.0 mm 0.00 in0.0 mm 0.00 in0.0 mm
02:15 AM 38.1°F3.4°C 25.9°F-3.4°C 61% 4.0 mph W6.4 kmh W 8.0 mph12.9 kmh 30.06 in1017.9 mb 0.00 in0.0 mm 0.00 in0.0 mm 0.00 in0.0 mm
02:10 AM 38.2°F3.4°C 25.6°F-3.6°C 60% 4.0 mph W6.4 kmh W 11.0 mph17.7 kmh 30.05 in1017.6 mb 0.00 in0.0 mm 0.00 in0.0 mm 0.00 in0.0 mm
02:05 AM 38.3°F3.5°C 25.6°F-3.6°C 60% 3.0 mph W4.8 kmh W 10.0 mph16.1 kmh 30.05 in1017.6 mb 0.00 in0.0 mm 0.00 in0.0 mm 0.00 in0.0 mm
02:00 AM 38.3°F3.5°C 25.2°F-3.8°C 59% 4.0 mph WNW6.4 kmh WNW 10.0 mph16.1 kmh 30.06 in1017.9 mb 0.00 in0.0 mm 0.00 in0.0 mm 0.00 in0.0 mm
01:55 AM 38.4°F3.6°C 24.9°F-3.9°C 58% 4.0 mph WNW6.4 kmh WNW 9.0 mph14.5 kmh 30.06 in1017.9 mb 0.00 in0.0 mm 0.00 in0.0 mm 0.00 in0.0 mm
01:50 AM 38.4°F3.6°C 24.9°F-3.9°C 58% 3.0 mph WNW4.8 kmh WNW 8.0 mph12.9 kmh 30.05 in1017.6 mb 0.00 in0.0 mm 0.00 in0.0 mm 0.00 in0.0 mm
01:45 AM 38.5°F3.6°C 25.0°F-3.9°C 58% 4.0 mph W6.4 kmh W 8.0 mph12.9 kmh 30.05 in1017.6 mb 0.00 in0.0 mm 0.00 in0.0 mm 0.00 in0.0 mm
01:40 AM 38.5°F3.6°C 25.0°F-3.9°C 58% 4.0 mph WNW6.4 kmh WNW 11.0 mph17.7 kmh 30.04 in1017.3 mb 0.00 in0.0 mm 0.00 in0.0 mm 0.00 in0.0 mm
01:35 AM 38.6°F3.7°C 25.5°F-3.6°C 59% 5.0 mph WNW8.0 kmh WNW 15.0 mph24.1 kmh 30.04 in1017.3 mb 0.00 in0.0 mm 0.00 in0.0 mm 0.00 in0.0 mm
01:30 AM 38.6°F3.7°C 25.5°F-3.6°C 59% 7.0 mph W11.3 kmh W 11.0 mph17.7 kmh 30.03 in1016.9 mb 0.00 in0.0 mm 0.00 in0.0 mm 0.00 in0.0 mm
01:25 AM 38.6°F3.7°C 25.9°F-3.4°C 60% 5.0 mph W8.0 kmh W 13.0 mph20.9 kmh 30.03 in1016.9 mb 0.00 in0.0 mm 0.00 in0.0 mm 0.00 in0.0 mm
01:20 AM 38.6°F3.7°C 26.3°F-3.2°C 61% 6.0 mph WSW9.7 kmh WSW 17.0 mph27.4 kmh 30.03 in1016.9 mb 0.00 in0.0 mm 0.00 in0.0 mm 0.00 in0.0 mm
01:15 AM 38.5°F3.6°C 26.6°F-3.0°C 62% 6.0 mph W9.7 kmh W 12.0 mph19.3 kmh 30.03 in1016.9 mb 0.00 in0.0 mm 0.00 in0.0 mm 0.00 in0.0 mm
01:10 AM 38.4°F3.6°C 26.9°F-2.8°C 63% 6.0 mph WNW9.7 kmh WNW 16.0 mph25.7 kmh 30.03 in1016.9 mb 0.00 in0.0 mm 0.00 in0.0 mm 0.00 in0.0 mm
01:05 AM 38.3°F3.5°C 27.2°F-2.7°C 64% 6.0 mph WNW9.7 kmh WNW 15.0 mph24.1 kmh 30.03 in1016.9 mb 0.00 in0.0 mm 0.00 in0.0 mm 0.00 in0.0 mm
01:00 AM 38.2°F3.4°C 27.9°F-2.3°C 66% 4.0 mph WSW6.4 kmh WSW 12.0 mph19.3 kmh 30.02 in1016.6 mb 0.00 in0.0 mm 0.00 in0.0 mm 0.00 in0.0 mm
12:55 AM 38.1°F3.4°C 27.8°F-2.3°C 66% 3.0 mph WSW4.8 kmh WSW 12.0 mph19.3 kmh 30.02 in1016.6 mb 0.00 in0.0 mm 0.00 in0.0 mm 0.00 in0.0 mm
12:50 AM 38.2°F3.4°C 27.9°F-2.3°C 66% 2.0 mph W3.2 kmh W 4.0 mph6.4 kmh 30.02 in1016.6 mb 0.00 in0.0 mm 0.00 in0.0 mm 0.00 in0.0 mm
12:45 AM 38.2°F3.4°C 27.9°F-2.3°C 66% 2.0 mph W3.2 kmh W 5.0 mph8.0 kmh 30.01 in1016.3 mb 0.00 in0.0 mm 0.00 in0.0 mm 0.00 in0.0 mm
12:40 AM 38.3°F3.5°C 27.6°F-2.4°C 65% 2.0 mph WSW3.2 kmh WSW 4.0 mph6.4 kmh 30.00 in1015.9 mb 0.00 in0.0 mm 0.00 in0.0 mm 0.00 in0.0 mm
12:35 AM 38.3°F3.5°C 27.6°F-2.4°C 65% 2.0 mph WSW3.2 kmh WSW 4.0 mph6.4 kmh 30.00 in1015.9 mb 0.00 in0.0 mm 0.00 in0.0 mm 0.00 in0.0 mm
12:30 AM 38.4°F3.6°C 27.7°F-2.4°C 65% 2.0 mph SW3.2 kmh SW 5.0 mph8.0 kmh 30.00 in1015.9 mb 0.00 in0.0 mm 0.00 in0.0 mm 0.00 in0.0 mm
12:25 AM 38.5°F3.6°C 27.8°F-2.3°C 65% 2.0 mph WSW3.2 kmh WSW 6.0 mph9.7 kmh 30.00 in1015.9 mb 0.00 in0.0 mm 0.00 in0.0 mm 0.00 in0.0 mm
12:20 AM 38.6°F3.7°C 27.9°F-2.3°C 65% 2.0 mph WSW3.2 kmh WSW 5.0 mph8.0 kmh 30.00 in1015.9 mb 0.00 in0.0 mm 0.00 in0.0 mm 0.00 in0.0 mm
12:15 AM 38.7°F3.7°C 28.0°F-2.2°C 65% 1.0 mph WSW1.6 kmh WSW 3.0 mph4.8 kmh 30.00 in1015.9 mb 0.00 in0.0 mm 0.00 in0.0 mm 0.00 in0.0 mm
12:10 AM 38.8°F3.8°C 28.1°F-2.2°C 65% 1.0 mph W1.6 kmh W 3.0 mph4.8 kmh 29.99 in1015.6 mb 0.00 in0.0 mm 0.00 in0.0 mm 0.00 in0.0 mm
12:05 AM 38.8°F3.8°C 28.1°F-2.2°C 65% 1.0 mph W1.6 kmh W 4.0 mph6.4 kmh 29.99 in1015.6 mb 0.00 in0.0 mm 0.00 in0.0 mm 0.00 in0.0 mm
12:00 AM 38.8°F3.8°C 28.1°F-2.2°C 65% 2.0 mph W3.2 kmh W 8.0 mph12.9 kmh 29.99 in1015.6 mb 0.00 in0.0 mm 0.00 in0.0 mm 0.24 in6.1 mm